Ada, Minnesota
Current Conditions -  °F | °C
As of 9:15 PM on Thursday 27 Nov 2014 (Local Time) from K3N8 Reporting Station
Light Snow Light Snow  
Wind Chill: -18°   Ceiling: 3600
Heat Index: -13°   Visibility: 7mi
Dew Point: -18°   Wind: 6mph
Humidity: 66%   Direction: 160°SSE
Pressure: 30.17"   Gusts: NA
Location:  47.3°N, 96.52°W
Report Text: K3N8 280315Z AUTO 16005KT 7SM -SN SCT030 BKN036 OVC045 M13/M18 A3017 RMK AO2 T11281180
Loading
Personal Weather Stations






























Interactive Weather Map New forecast layout! Learn more

10-Day Weather Forecast

Advertisements
Track Severe Weather on mobile